Main page
METAR-TAF:

METAR-TAF

Airports :

F 7 Såtenäs

Såtenäs, Sweden

latitude: 58-26N, longitude: 012-42E, elevation: 54 m

Current weather observation

The report was made 47 minutes ago, at 01:20 UTC
Wind 5 kt from the East/Southeast
Temperature 1°C
Humidity 100%
Pressure 995 hPa
Visibility 10 km or more

METAR: ESIB 250120Z AUTO 11005KT 9999 OVC038/// 01/01 Q0995

Time: 03:07 (02:07 UTC)

Forecast

The report was made 15 hours and 7 minutes ago, at 11:00 UTC
Forecast valid from 24 at 12 UTC to 24 at 16 UTC
Wind 10 kt from the West
Visibility 10 km or more
no clouds below 1500 m and no cumulonimbus
Becoming
from 24 at 12 UTC to 24 at 13 UTC
Wind 10 kt from the Southwest with gusts up to 18 kt

TAF: ESIB 241100Z 2412/2416 26010KT CAVOK BECMG 2412/2413 23010G18KT RMK MIL

Weather observations and forecasts of more than 4000 airports (METAR and TAF reports).

The available stations are represented by yellow and red dots on the map.

Hover mouse over dot to see the name of the station.

Then click to see weather observations and forecasts.

To change the map : click on the green buttons with a black cross to zoom in, on the green button with a dash to zoom out, or on the green arrows for adjacent maps.


METAR-TAF: